CheckWX is a tool to help pilots better visualize weather data.  It is not intended as a substitute for an official pre-flight weather briefing.

17:18:04 UTC

KOJA METAR
Thomas P Stafford Airport
Weatherford, Oklahoma, USA
Current

23 mins ago

KOJA 181655Z AUTO 17015G21KT 10SM CLR 32/21 A2987 RMK AO2
Observed
Aug-18 @ 16:55 UTC
Wind
  • 170° at 15 KTS
  • Gusting to 21 KTS
Visibility
10 SM
Flight Rules
VFR
Cloud Levels
  • Clear skies
Temperature
32°C / 90°F
Dewpoint
21°C / 70°F
Heat Index
36°C / 96°F
Humidity
52%
Altimeter
29.87" Hg
Pressure
1011.52 hPa
Previous

43 mins ago

KOJA 181635Z AUTO 13012G19KT 10SM CLR 30/22 A2989 RMK AO2
Observed
Aug-18 @ 16:35 UTC
Wind
  • 130° at 12 KTS
  • Gusting to 19 KTS
Visibility
10 SM
Flight Rules
VFR
Cloud Levels
  • Clear skies
Temperature
30°C / 86°F
Dewpoint
22°C / 72°F
Heat Index
33°C / 92°F
Humidity
62%
Altimeter
29.89" Hg
Pressure
1012.22 hPa
Previous

1 hour ago

KOJA 181615Z AUTO 12008KT 10SM CLR 30/21 A2990 RMK AO2
Observed
Aug-18 @ 16:15 UTC
Wind
  • 120° at 8 KTS
Visibility
10 SM
Flight Rules
VFR
Cloud Levels
  • Clear skies
Temperature
30°C / 86°F
Dewpoint
21°C / 70°F
Heat Index
33°C / 91°F
Humidity
59%
Altimeter
29.9" Hg
Pressure
1012.52 hPa